createdAt,value
2022-11-17T00:04:24.635Z,11.98
2022-11-17T00:09:25.312Z,11.86
2022-11-17T00:14:33.831Z,11.78
2022-11-17T00:19:48.464Z,11.73
2022-11-17T00:24:49.038Z,11.72
2022-11-17T00:29:45.842Z,11.76
2022-11-17T00:34:42.589Z,11.82
2022-11-17T00:39:41.715Z,11.89
2022-11-17T00:44:38.990Z,12.09
2022-11-17T00:49:36.528Z,12.17
2022-11-17T00:54:36.187Z,12.26
2022-11-17T00:59:34.988Z,12.22
2022-11-17T01:04:34.826Z,12.22
2022-11-17T01:09:31.557Z,12.12
2022-11-17T01:14:28.954Z,12.11
2022-11-17T01:19:27.955Z,12.32
2022-11-17T01:24:26.708Z,12.43
2022-11-17T01:29:23.532Z,12.43
2022-11-17T01:34:20.312Z,12.35
2022-11-17T01:39:20.049Z,12.32
2022-11-17T01:44:35.480Z,12.25
2022-11-17T01:49:33.286Z,12.20
2022-11-17T01:54:34.604Z,12.25
2022-11-17T01:59:36.925Z,12.19
2022-11-17T02:04:35.804Z,12.33
2022-11-17T02:09:33.264Z,12.30
2022-11-17T02:14:30.431Z,12.28
2022-11-17T02:19:28.266Z,12.30
2022-11-17T02:24:47.162Z,12.30
2022-11-17T02:29:48.219Z,12.29
2022-11-17T02:34:47.057Z,12.33
2022-11-17T02:39:48.105Z,12.28
2022-11-17T02:44:53.276Z,12.08
2022-11-17T02:49:53.442Z,12.01
2022-11-17T02:54:49.995Z,11.84
2022-11-17T02:59:49.208Z,11.82
2022-11-17T03:04:52.105Z,11.87
2022-11-17T03:09:54.347Z,11.96
2022-11-17T03:14:57.948Z,12.07
2022-11-17T03:19:58.669Z,12.13
2022-11-17T03:24:57.932Z,12.22
2022-11-17T03:29:58.517Z,12.22
2022-11-17T03:35:00.695Z,12.13
2022-11-17T03:39:59.567Z,11.69
2022-11-17T03:45:00.951Z,11.58
2022-11-17T03:50:01.817Z,11.63
2022-11-17T03:54:58.768Z,11.72
2022-11-17T04:00:04.429Z,11.64
2022-11-17T04:05:09.637Z,11.74
2022-11-17T04:10:07.123Z,11.84
2022-11-17T04:15:22.765Z,11.91
2022-11-17T04:20:19.567Z,12.02
2022-11-17T04:25:36.355Z,12.02
2022-11-17T04:30:36.594Z,12.10
2022-11-17T04:35:33.395Z,11.91
2022-11-17T04:40:50.217Z,11.99
2022-11-17T04:45:47.900Z,12.02
2022-11-17T04:50:44.545Z,11.63
2022-11-17T04:55:41.276Z,11.35
2022-11-17T05:00:38.917Z,11.20
2022-11-17T05:05:36.263Z,11.35
2022-11-17T05:10:50.912Z,11.58
2022-11-17T05:16:05.632Z,11.67
2022-11-17T05:21:07.734Z,11.82
2022-11-17T05:26:05.281Z,11.78
2022-11-17T05:31:11.222Z,11.83
2022-11-17T05:36:11.338Z,12.22
2022-11-17T05:41:08.062Z,12.22
2022-11-17T05:46:06.625Z,12.28
2022-11-17T05:51:12.355Z,12.27
2022-11-17T05:56:14.658Z,12.39
2022-11-17T06:01:14.727Z,12.45
2022-11-17T06:06:11.427Z,12.74
2022-11-17T06:11:09.508Z,12.57
2022-11-17T06:16:12.671Z,12.74
2022-11-17T06:21:14.904Z,12.68
2022-11-17T06:26:12.329Z,12.71
2022-11-17T06:31:10.107Z,12.80
2022-11-17T06:36:08.912Z,13.15
2022-11-17T06:41:11.503Z,12.99
2022-11-17T06:46:11.860Z,13.27
2022-11-17T06:51:11.239Z,13.18
2022-11-17T06:56:08.309Z,13.22
2022-11-17T07:01:14.039Z,13.42
2022-11-17T07:06:15.637Z,13.43
2022-11-17T07:11:13.685Z,13.57
2022-11-17T07:16:12.082Z,13.44
2022-11-17T07:21:13.588Z,13.71
2022-11-17T07:26:14.117Z,13.50
2022-11-17T07:31:11.360Z,13.59
2022-11-17T07:36:11.982Z,13.51
2022-11-17T07:41:15.251Z,13.53
2022-11-17T07:46:13.748Z,13.53
2022-11-17T07:51:11.131Z,13.64
2022-11-17T07:56:11.815Z,13.74
2022-11-17T08:01:14.908Z,13.68
2022-11-17T08:06:12.301Z,13.69
2022-11-17T08:11:13.833Z,13.62
2022-11-17T08:16:13.802Z,13.57
2022-11-17T08:21:13.261Z,13.45
2022-11-17T08:26:11.110Z,13.52
2022-11-17T08:31:09.616Z,13.42
2022-11-17T08:36:10.237Z,13.50
2022-11-17T08:41:15.541Z,13.22
2022-11-17T08:46:12.663Z,13.23
2022-11-17T08:51:13.734Z,13.33
2022-11-17T08:56:14.523Z,13.39
2022-11-17T09:01:12.635Z,13.42
2022-11-17T09:06:10.601Z,13.27
2022-11-17T09:11:20.308Z,13.44
2022-11-17T09:16:17.317Z,13.36
2022-11-17T09:21:15.455Z,13.42
2022-11-17T09:26:13.868Z,13.53
2022-11-17T09:31:12.005Z,13.59
2022-11-17T09:36:09.052Z,13.53
2022-11-17T09:41:23.706Z,13.69
2022-11-17T09:46:27.707Z,13.79
2022-11-17T09:51:26.361Z,13.78
2022-11-17T09:56:26.430Z,13.90
2022-11-17T10:01:23.587Z,13.88
2022-11-17T10:06:24.883Z,14.07
2022-11-17T10:11:37.040Z,14.13
2022-11-17T10:16:37.607Z,14.12
2022-11-17T10:21:37.575Z,14.08
2022-11-17T10:26:48.564Z,14.00
2022-11-17T10:31:50.268Z,14.21
2022-11-17T10:36:50.986Z,13.96
2022-11-17T10:41:50.894Z,13.90
2022-11-17T10:47:00.508Z,13.70
2022-11-17T10:52:06.782Z,13.68
2022-11-17T10:57:07.271Z,13.64
2022-11-17T11:02:21.603Z,13.58
2022-11-17T11:07:20.773Z,13.51
2022-11-17T11:12:22.628Z,13.30
2022-11-17T11:17:20.372Z,13.32
2022-11-17T11:22:29.386Z,13.28
2022-11-17T11:27:42.559Z,13.19
2022-11-17T11:32:47.668Z,13.12
2022-11-17T11:37:51.913Z,13.03
2022-11-17T11:42:53.969Z,13.14
2022-11-17T11:48:11.938Z,13.27
2022-11-17T11:53:19.447Z,13.52
2022-11-17T11:58:19.895Z,13.65
2022-11-17T12:03:21.390Z,13.87
2022-11-17T12:08:31.256Z,13.88
2022-11-17T12:13:31.186Z,14.24
2022-11-17T12:18:33.487Z,14.16
2022-11-17T12:23:58.244Z,14.42
2022-11-17T12:29:13.944Z,14.51
2022-11-17T12:34:25.745Z,14.50
2022-11-17T12:39:40.888Z,14.63
2022-11-17T12:44:58.431Z,14.71
2022-11-17T12:50:18.817Z,14.71
2022-11-17T12:55:21.325Z,14.88
2022-11-17T13:00:19.966Z,14.92
2022-11-17T13:05:20.634Z,14.88
2022-11-17T13:10:25.318Z,14.77
2022-11-17T13:15:22.918Z,14.79
2022-11-17T13:20:24.524Z,14.77
2022-11-17T13:25:22.304Z,14.68
2022-11-17T13:30:23.475Z,14.67
2022-11-17T13:35:21.038Z,14.70
2022-11-17T13:40:20.709Z,14.61
2022-11-17T13:45:18.849Z,14.61
2022-11-17T13:50:23.514Z,14.41
2022-11-17T13:55:24.089Z,14.48
2022-11-17T14:00:23.828Z,14.43
2022-11-17T14:05:22.670Z,14.29
2022-11-17T14:10:31.038Z,14.24
2022-11-17T14:15:29.227Z,14.27
2022-11-17T14:20:31.386Z,14.35
2022-11-17T14:25:28.182Z,14.27
2022-11-17T14:30:29.624Z,14.21
2022-11-17T14:35:26.264Z,14.09
2022-11-17T14:40:23.022Z,14.05
2022-11-17T14:45:19.721Z,13.87
2022-11-17T14:50:20.218Z,14.09
2022-11-17T14:55:19.119Z,13.97
2022-11-17T15:00:20.529Z,13.80
2022-11-17T15:05:20.144Z,13.72
2022-11-17T15:10:19.681Z,13.90
2022-11-17T15:15:17.115Z,13.95
2022-11-17T15:20:13.881Z,13.76
2022-11-17T15:25:13.183Z,13.69
2022-11-17T15:30:11.188Z,13.81
2022-11-17T15:35:08.335Z,13.58
2022-11-17T15:40:05.721Z,13.66
2022-11-17T15:45:02.473Z,13.71
2022-11-17T15:50:02.817Z,13.61
2022-11-17T15:54:59.794Z,13.83
2022-11-17T15:59:56.550Z,13.69
2022-11-17T16:04:53.390Z,13.61
2022-11-17T16:09:50.766Z,13.53
2022-11-17T16:14:50.571Z,13.55
2022-11-17T16:19:49.462Z,13.49
2022-11-17T16:24:46.358Z,13.65
2022-11-17T16:29:43.748Z,13.51
2022-11-17T16:34:43.158Z,13.46
2022-11-17T16:39:44.837Z,13.36
2022-11-17T16:44:45.571Z,13.36
2022-11-17T16:49:46.769Z,13.33
2022-11-17T16:54:50.175Z,13.33
2022-11-17T16:59:47.601Z,13.26
2022-11-17T17:04:46.682Z,13.17
2022-11-17T17:09:44.077Z,13.02
2022-11-17T17:14:40.843Z,13.06
2022-11-17T17:19:38.149Z,12.88
2022-11-17T17:24:36.033Z,12.48
2022-11-17T17:29:33.001Z,12.55
2022-11-17T17:34:29.805Z,12.31
2022-11-17T17:39:28.632Z,12.45
2022-11-17T17:44:25.257Z,12.52
2022-11-17T17:49:22.007Z,12.57
2022-11-17T17:54:22.374Z,12.54
2022-11-17T17:59:22.649Z,12.54
2022-11-17T18:04:19.367Z,12.44
2022-11-17T18:09:19.982Z,12.49
2022-11-17T18:14:23.460Z,12.53
2022-11-17T18:19:22.377Z,12.32
2022-11-17T18:24:22.049Z,12.37
2022-11-17T18:29:21.785Z,12.41
2022-11-17T18:34:20.571Z,12.32
2022-11-17T18:39:18.296Z,12.18
2022-11-17T18:44:16.402Z,12.32
2022-11-17T18:49:14.715Z,12.14
2022-11-17T18:54:14.684Z,12.02
2022-11-17T18:59:12.339Z,12.10
2022-11-17T19:04:10.221Z,12.02
2022-11-17T19:09:09.408Z,12.01
2022-11-17T19:14:06.240Z,12.11
2022-11-17T19:19:03.610Z,12.08
2022-11-17T19:24:02.590Z,11.97
2022-11-17T19:29:02.155Z,11.92
2022-11-17T19:33:59.385Z,11.77
2022-11-17T19:39:00.759Z,11.88
2022-11-17T19:43:58.490Z,11.71
2022-11-17T19:48:58.366Z,11.81
2022-11-17T19:53:55.996Z,11.84
2022-11-17T19:58:54.433Z,11.90
2022-11-17T20:03:51.658Z,11.99
2022-11-17T20:08:48.615Z,12.02
2022-11-17T20:13:45.519Z,11.94
2022-11-17T20:18:43.414Z,11.70
2022-11-17T20:23:40.744Z,11.74
2022-11-17T20:28:37.755Z,11.79
2022-11-17T20:33:34.479Z,11.79
2022-11-17T20:38:35.275Z,11.78
2022-11-17T20:43:35.288Z,11.72
2022-11-17T20:48:34.749Z,11.64
2022-11-17T20:53:32.742Z,11.62
2022-11-17T20:58:30.152Z,11.55
2022-11-17T21:03:26.947Z,11.53
2022-11-17T21:08:23.761Z,11.52
2022-11-17T21:13:26.652Z,11.49
2022-11-17T21:18:26.495Z,11.35
2022-11-17T21:23:23.435Z,11.33
2022-11-17T21:28:20.228Z,11.21
2022-11-17T21:33:17.972Z,11.41
2022-11-17T21:38:14.766Z,11.23
2022-11-17T21:43:11.442Z,11.29
2022-11-17T21:48:09.738Z,11.31
2022-11-17T21:53:07.138Z,11.34
2022-11-17T21:58:03.866Z,11.29
2022-11-17T22:03:01.300Z,11.33
2022-11-17T22:07:58.606Z,11.41
2022-11-17T22:12:56.155Z,11.21
2022-11-17T22:17:53.554Z,11.26
2022-11-17T22:22:53.834Z,11.30
2022-11-17T22:27:50.500Z,11.13
2022-11-17T22:32:47.967Z,11.13
2022-11-17T22:37:45.953Z,11.13
2022-11-17T22:42:42.523Z,11.14
2022-11-17T22:47:41.623Z,11.21
2022-11-17T22:52:38.896Z,11.31
2022-11-17T22:57:35.564Z,11.37
2022-11-17T23:02:32.407Z,11.25
2022-11-17T23:07:33.135Z,11.20
2022-11-17T23:12:30.923Z,11.27
2022-11-17T23:17:27.433Z,11.30
2022-11-17T23:22:24.160Z,11.48
2022-11-17T23:27:21.210Z,11.40
2022-11-17T23:32:18.604Z,11.45
2022-11-17T23:37:15.341Z,11.41
2022-11-17T23:42:13.365Z,11.54
2022-11-17T23:47:10.054Z,11.63
2022-11-17T23:52:10.573Z,11.52
2022-11-17T23:57:07.928Z,11.43
